• Join FlightAware (Why Join?)
  • Login
  • US Flag 
12:13PM EDT


 

Airport Tracker/Info


-or-


 

Live Flight TrackerFlight Track Log ✈ TCF3494 ✈ 21-Nov-2013 ✈ KORD - KSLC

Flight Track Log - Related Links

Times and Time Zones

All times are in EST time to prevent confusion due to time zone crossing. See the TCF3494 flight status page for this flight to view local times or setup timezone preferences in your user account.

Time Position Orientation Groundspeed Altitude Reporting Facility
EST Latitude Longitude Course Direction KTS MPH feet Rate Location/Type
02:58PM 42.0000 -87.9500 270° West 159 183 1,700  Level Chicago TRACON
02:59PM 42.0167 -88.0167 289° West 205 236 2,900 1,500 Climbing Chicago TRACON
03:00PM 42.0244 -88.1328 275° West 249 287 5,500 2,040 Climbing Chicago Center
03:01PM 42.0074 -88.4306 270° West  Level Estimated
03:01PM 42.0092 -88.2261 258° West 262 302 8,200  Level Chicago Center
03:02PM 42.0141 -88.5615 270° West  Level Estimated
03:02PM 41.9897 -88.3419 257° West 268 308 11,100  Level Chicago Center
03:03PM 42.0206 -88.6925 270° West  Level Estimated
03:03PM 41.9736 -88.4447 258° West 281 323 13,400  Level Chicago Center
03:04PM 41.9575 -88.5428 258° West 273 314 16,000 1,740 Climbing Chicago Center
03:05PM 41.9400 -88.6419 257° West 274 315 17,100 1,500 Climbing Chicago Center
03:06PM 41.9175 -88.7783 258° West 306 352 19,100 1,680 Climbing Chicago Center
03:07PM 41.9097 -88.8917 265° West 311 358 20,600 1,500 Climbing Chicago Center
03:08PM 41.9067 -89.0106 268° West 318 366 22,200 1,620 Climbing Chicago Center
03:09PM 41.9031 -89.1256 268° West 313 360 24,000 1,260 Climbing Chicago Center
03:10PM 41.8975 -89.2428 266° West 317 365 24,900 960 Climbing Chicago Center
03:11PM 41.8853 -89.3625 262° West 323 372 26,100 1,200 Climbing Chicago Center
03:12PM 41.8728 -89.5081 263° West 327 376 27,400 1,080 Climbing Chicago Center
03:13PM 41.8575 -89.6350 261° West 339 390 28,400 1,020 Climbing Chicago Center
03:15PM 41.8447 -89.7617 262° West 343 395 29,600 1,380 Climbing Chicago Center
03:16PM 41.8325 -89.8883 263° West 345 397 31,300 1,440 Climbing Chicago Center
03:17PM 41.8239 -90.0175 265° West 333 383 32,600 1,140 Climbing Chicago Center
03:18PM 41.8161 -90.1381 265° West 329 379 33,700 960 Climbing Chicago Center
03:19PM 41.8128 -90.2625 268° West 334 384 34,600 720 Climbing Chicago Center
03:20PM 41.8114 -90.4125 269° West 336 387 35,300 660 Climbing Chicago Center
03:21PM 41.8058 -90.5367 267° West 336 387 36,000 300 Climbing Chicago Center
03:22PM 41.8011 -90.6597 267° West 336 387 36,000  Level Chicago Center
03:23PM 41.7983 -90.7808 268° West 331 381 36,000  Level Chicago Center
03:24PM 41.7958 -90.9017 268° West 327 376 36,000  Level Chicago Center
03:25PM 41.7919 -91.0528 268° West 336 387 36,000  Level Chicago Center
03:26PM 41.7881 -91.1783 268° West 338 389 36,000  Level Chicago Center
03:27PM 41.7844 -91.3036 268° West 338 389 36,000  Level Chicago Center
03:28PM 41.7803 -91.4308 268° West 342 394 36,000  Level Chicago Center
03:29PM 41.7761 -91.5561 267° West 339 390 36,000  Level Chicago Center
03:30PM 41.7725 -91.6833 268° West 341 392 36,000  Level Chicago Center
03:31PM 41.7681 -91.8375 268° West 345 397 36,000  Level Chicago Center
03:32PM 41.7636 -91.9642 267° West 343 395 36,000  Level Chicago Center
03:33PM 41.7594 -92.0936 268° West 347 399 36,000  Level Chicago Center
03:34PM 41.7536 -92.2217 267° West 348 400 36,000  Level Chicago Center
03:35PM 41.7492 -92.3494 267° West 345 397 36,000  Level Chicago Center
03:36PM 41.7433 -92.5031 267° West 346 398 36,000  Level Chicago Center
03:37PM 41.7369 -92.6289 266° West 344 396 36,000  Level Chicago Center
03:38PM 41.7347 -92.7100 268° West 349 402 36,000  Level Minneapolis Center
03:39PM 41.7281 -92.8617 267° West 349 402 36,000  Level Minneapolis Center
03:40PM 41.7217 -92.9886 266° West 347 399 36,000  Level Minneapolis Center
03:41PM 41.7164 -93.1164 267° West 347 399 36,000  Level Minneapolis Center
03:42PM 41.7106 -93.2464 267° West 350 403 36,000  Level Minneapolis Center
03:43PM 41.7036 -93.4036 267° West 354 407 36,000  Level Minneapolis Center
03:44PM 41.6967 -93.5342 266° West 353 406 36,000  Level Minneapolis Center
03:45PM 41.6906 -93.6639 266° West 354 407 36,000  Level Minneapolis Center
03:46PM 41.6844 -93.7914 266° West 351 404 36,000  Level Minneapolis Center
03:47PM 41.6781 -93.9208 266° West 351 404 36,000  Level Minneapolis Center
03:48PM 41.6714 -94.0489 266° West 350 403 36,000  Level Minneapolis Center
03:49PM 41.6636 -94.2047 266° West 352 405 36,000  Level Minneapolis Center
03:50PM 41.6542 -94.3392 265° West 353 406 36,000  Level Minneapolis Center
03:51PM 41.6486 -94.4681 267° West 350 403 36,000  Level Minneapolis Center
03:52PM 41.6417 -94.5983 266° West 351 404 36,000  Level Minneapolis Center
03:53PM 41.6331 -94.7289 265° West 352 405 36,000  Level Minneapolis Center
03:55PM 41.6258 -94.8589 266° West 352 405 36,000  Level Minneapolis Center
03:56PM 41.6167 -94.9889 265° West 352 405 36,000  Level Minneapolis Center
03:57PM 41.6075 -95.1442 266° West 351 404 36,000  Level Minneapolis Center
03:58PM 41.5989 -95.2747 265° West 353 406 36,000  Level Minneapolis Center
03:59PM 41.5903 -95.4050 265° West 353 406 36,000  Level Minneapolis Center
04:00PM 41.5819 -95.5344 265° West 352 405 36,000  Level Minneapolis Center
04:01PM 41.5722 -95.6836 265° West 350 403 36,000  Level Minneapolis Center
04:02PM 41.5636 -95.8125 265° West 348 400 36,000  Level Minneapolis Center
04:03PM 41.5539 -95.9411 264° West 348 400 36,000  Level Minneapolis Center
04:04PM 41.5450 -96.0711 265° West 350 403 36,000  Level Minneapolis Center
04:05PM 41.5353 -96.1992 264° West 349 402 36,000  Level Minneapolis Center
04:06PM 41.5256 -96.3278 264° West 347 399 36,000  Level Minneapolis Center
04:07PM 41.5156 -96.4786 265° West 349 402 36,000  Level Minneapolis Center
04:08PM 41.5056 -96.6069 264° West 349 402 36,000  Level Minneapolis Center
04:09PM 41.4953 -96.7347 264° West 347 399 36,000  Level Minneapolis Center
04:10PM 41.4850 -96.8617 264° West 347 399 36,000  Level Minneapolis Center
04:11PM 41.4747 -96.9869 264° West 342 394 36,000  Level Minneapolis Center
04:12PM 41.4650 -97.1119 264° West 340 391 36,000  Level Minneapolis Center
04:13PM 41.4544 -97.2386 264° West 344 396 36,000  Level Minneapolis Center
04:14PM 41.4436 -97.3886 265° West 340 391 36,000  Level Minneapolis Center
04:15PM 41.4317 -97.5128 263° West 338 389 36,000  Level Minneapolis Center
04:16PM 41.4211 -97.6386 264° West 342 394 36,000  Level Minneapolis Center
04:17PM 41.4114 -97.7642 264° West 341 392 36,000  Level Minneapolis Center
04:18PM 41.4000 -97.8894 263° West 341 392 36,000  Level Minneapolis Center
04:19PM 41.3894 -98.0142 264° West 340 391 36,000  Level Minneapolis Center
04:20PM 41.3772 -98.1469 263° West 342 394 36,000  Level Minneapolis Center
04:21PM 41.3664 -98.2736 264° West 344 396 36,000  Level Minneapolis Center
04:22PM 41.3525 -98.4231 263° West 341 392 36,000  Level Minneapolis Center
04:23PM 41.3417 -98.5400 263° West 339 390 36,000  Level Minneapolis Center
04:24PM 41.3303 -98.6636 263° West 338 389 36,000  Level Minneapolis Center
04:25PM 41.3172 -98.7878 262° West 338 389 36,000  Level Minneapolis Center
04:26PM 41.3044 -98.9117 262° West 339 390 36,000  Level Minneapolis Center
04:28PM 41.2914 -99.0606 263° West 338 389 36,000  Level Minneapolis Center
04:29PM 41.2800 -99.1839 263° West 338 389 36,000  Level Minneapolis Center
04:30PM 41.2683 -99.3083 263° West 339 390 36,000  Level Minneapolis Center
04:31PM 41.2561 -99.4306 262° West 336 387 36,000  Level Minneapolis Center
04:32PM 41.2436 -99.5528 262° West 336 387 36,000  Level Minneapolis Center
04:33PM 41.2322 -99.6739 263° West 333 383 36,000  Level Minneapolis Center
04:34PM 41.2197 -99.7961 262° West 333 383 36,000  Level Minneapolis Center
04:35PM 41.2047 -99.9422 262° West 333 383 36,000  Level Minneapolis Center
04:36PM 41.1917 -100.0636 262° West 333 383 36,000  Level Minneapolis Center
04:37PM 41.1783 -100.1861 262° West 334 384 36,000  Level Minneapolis Center
04:38PM 41.1647 -100.3094 262° West 336 387 36,000  Level Minneapolis Center
04:39PM 41.1514 -100.4314 262° West 335 386 36,000  Level Minneapolis Center
04:40PM 41.1378 -100.5528 262° West 334 384 36,000  Level Minneapolis Center
04:41PM 41.1167 -100.7272 261° West 334 384 36,000  Level Denver Center
04:42PM 41.1036 -100.8417 261° West 332 382 36,000  Level Denver Center
04:43PM 41.0883 -100.9753 261° West 331 381 36,000  Level Denver Center
04:44PM 41.0753 -101.0903 261° West 331 381 36,000  Level Denver Center
04:45PM 41.0592 -101.2236 261° West 330 380 36,000  Level Denver Center
04:46PM 41.0467 -101.3400 262° West 333 383 36,000  Level Denver Center
04:47PM 41.0292 -101.4744 260° West 334 384 36,000  Level Denver Center
04:48PM 41.0169 -101.5900 262° West 333 383 36,000  Level Denver Center
04:49PM 40.9994 -101.7264 260° West 336 387 36,000  Level Denver Center
04:51PM 40.9861 -101.8408 261° West 332 382 36,000  Level Denver Center
04:52PM 40.9694 -101.9753 261° West 331 381 36,000  Level Denver Center
04:53PM 40.9553 -102.0908 261° West 332 382 36,000  Level Denver Center
04:54PM 40.9417 -102.2067 261° West 334 384 36,000  Level Denver Center
04:55PM 40.9219 -102.3417 259° West 337 388 36,000  Level Denver Center
04:56PM 40.9083 -102.4556 261° West 329 379 36,000  Level Denver Center
04:57PM 40.8897 -102.5914 260° West 336 387 36,000  Level Denver Center
04:58PM 40.8711 -102.7442 261° West 331 381 36,000  Level Denver Center
04:59PM 40.8556 -102.8589 260° West 331 381 36,000  Level Denver Center
05:00PM 40.8372 -102.9931 260° West 333 383 36,000  Level Denver Center
05:01PM 40.8222 -103.1067 260° West 328 377 36,000  Level Denver Center
05:02PM 40.8061 -103.2264 260° West 331 381 36,000  Level Denver Center
05:03PM 40.7897 -103.3456 260° West 331 381 36,000  Level Denver Center
05:04PM 40.7703 -103.4861 260° West 326 375 36,000  Level Denver Center
05:05PM 40.7503 -103.6289 260° West 330 380 36,000  Level Denver Center
05:06PM 40.7333 -103.7478 259° West 331 381 36,000  Level Denver Center
05:07PM 40.7183 -103.8653 260° West 326 375 36,000  Level Denver Center
05:08PM 40.7014 -103.9825 259° West 327 376 36,000  Level Denver Center
05:10PM 40.6844 -104.1008 259° West 329 379 36,000  Level Denver Center
05:11PM 40.6675 -104.2194 259° West 331 381 36,000  Level Denver Center
05:12PM 40.6469 -104.3592 259° West 325 374 36,000  Level Denver Center
05:13PM 40.6297 -104.4789 259° West 331 381 36,000  Level Denver Center
05:14PM 40.6119 -104.5956 259° West 328 377 36,000  Level Denver Center
05:15PM 40.5944 -104.7133 259° West 330 380 36,000  Level Denver Center
05:16PM 40.5806 -104.8067 259° West 328 377 36,000  Level Denver Center
05:17PM 40.5600 -104.9489 259° West 331 381 36,000  Level Denver Center
05:18PM 40.5381 -105.0883 258° West 328 377 36,000  Level Denver Center
05:19PM 40.5206 -105.2006 258° West 318 366 36,000  Level Denver Center
05:20PM 40.5022 -105.3169 258° West 323 372 36,000  Level Denver Center
05:21PM 40.4842 -105.4353 259° West 330 380 36,000  Level Denver Center
05:22PM 40.4658 -105.5531 258° West 331 381 36,000  Level Denver Center
05:23PM 40.4503 -105.6725 260° West 333 383 36,000  Level Denver Center
05:24PM 40.4375 -105.8119 263° West 324 373 36,000  Level Denver Center
05:25PM 40.4264 -105.9292 263° West 325 374 36,000  Level Denver Center
05:26PM 40.4167 -106.0464 264° West 325 374 36,000  Level Denver Center
05:27PM 40.4033 -106.1717 262° West 319 367 36,000  Level Denver Center
05:28PM 40.3917 -106.2850 262° West 325 374 36,000  Level Denver Center
05:29PM 40.3794 -106.4158 263° West 325 374 36,000  Level Denver Center
05:30PM 40.3692 -106.5269 263° West 322 371 36,000  Level Denver Center
05:31PM 40.3572 -106.6431 262° West 322 371 36,000  Level Denver Center
05:32PM 40.3447 -106.7575 262° West 320 368 36,000  Level Denver Center
05:33PM 40.3336 -106.8781 263° West 321 369 36,000  Level Denver Center
05:34PM 40.3192 -107.0064 262° West 319 367 36,000  Level Denver Center
05:35PM 40.3081 -107.1181 263° West 322 371 36,000  Level Denver Center
05:36PM 40.2944 -107.2461 262° West 319 367 36,000  Level Denver Center
05:37PM 40.2825 -107.3558 262° West 318 366 36,000  Level Denver Center
05:38PM 40.2686 -107.4819 262° West 315 362 36,000  Level Denver Center
05:39PM 40.2569 -107.5919 262° West 318 366 36,000  Level Denver Center
05:40PM 40.2428 -107.7186 262° West 316 364 36,000  Level Denver Center
05:41PM 40.2314 -107.8256 262° West 314 361 36,000  Level Denver Center
05:43PM 40.2178 -107.9528 262° West 316 364 36,000  Level Denver Center
05:44PM 40.2053 -108.0606 261° West 315 362 36,000  Level Denver Center
05:45PM 40.1906 -108.1861 261° West 314 361 36,000  Level Denver Center
05:46PM 40.1786 -108.2942 262° West 313 360 36,000  Level Denver Center
05:47PM 40.1653 -108.4033 261° West 317 365 36,000  Level Denver Center
05:48PM 40.1503 -108.5281 261° West 314 361 36,000  Level Denver Center
05:49PM 40.1375 -108.6361 261° West 316 364 36,000  Level Denver Center
05:50PM 40.1222 -108.7642 261° West 319 367 36,000  Level Denver Center
05:51PM 40.1094 -108.8714 261° West 316 364 36,000  Level Denver Center
05:52PM 40.1125 -109.0006 272° West 320 368 36,000  Level Denver Center
05:53PM 40.1167 -109.1117 273° West 321 369 36,000  Level Denver Center
05:54PM 40.1217 -109.2425 273° West 323 372 36,000 -300 Level Denver Center
05:55PM 40.1247 -109.3547 272° West 324 373 35,400 -960 Descending Denver Center
05:56PM 40.1294 -109.4864 273° West 324 373 34,100 -1,260 Descending Salt Lake Center
05:57PM 40.1336 -109.6056 273° West 340 391 32,900 -1,260 Descending Salt Lake Center
05:58PM 40.1381 -109.7467 272° West 345 397 31,500 -1,260 Descending Salt Lake Center
05:59PM 40.1419 -109.8711 272° West 354 407 30,300 -780 Descending Salt Lake Center
06:00PM 40.1464 -110.0186 272° West 363 418 30,000 -180 Descending Salt Lake Center
06:01PM 40.1494 -110.1439 272° West 362 417 30,000  Level Salt Lake Center
06:02PM 40.1486 -110.2931 270° West 368 423 30,000  Level Salt Lake Center
06:03PM 40.1469 -110.4175 269° West 360 414 30,000  Level Salt Lake Center
06:04PM 40.1456 -110.5522 269° West 337 388 30,000 -540 Level Salt Lake Center
06:05PM 40.1436 -110.6697 269° West 337 388 28,900 -1,440 Descending Salt Lake Center
06:06PM 40.1433 -110.7903 270° West 345 397 27,100 -1,860 Descending Salt Lake Center
06:07PM 40.1408 -110.9294 269° West 343 395 25,100 -1,800 Descending Salt Lake Center
06:08PM 40.1400 -111.0478 270° West 334 384 23,400 -1,740 Descending Salt Lake Center
06:09PM 40.1381 -111.1664 269° West 328 377 21,600 -1,740 Descending Salt Lake Center
06:10PM 40.1367 -111.2822 269° West 321 369 19,900 -1,800 Descending Salt Lake Center
06:11PM 40.1325 -111.4211 268° West 319 367 17,900 -1,860 Descending Salt Lake Center
06:12PM 40.1264 -111.5181 265° West 315 362 16,500 -1,680 Descending Salt Lake Center
06:12PM 40.1306 -111.5344 288° West 313 360 16,200 -1,020 Descending Salt Lake Center
06:13PM 40.1322 -111.5692 274° West 313 360 16,000 -540 Descending Salt Lake Center
06:13PM 40.1619 -111.6319 302° West 292 336 15,700 -840 Descending Salt Lake Center
06:14PM 40.1692 -111.6664 285° West 288 331 15,200 -1,200 Descending Salt Lake Center
06:15PM 40.2072 -111.7186 314° West 294 338 14,500 -1,020 Descending Salt Lake Center
06:15PM 40.2225 -111.7492 303° West 293 337 14,200 -840 Descending Salt Lake Center
06:16PM 40.2625 -111.7944 319° Northwest 288 331 13,700 -720 Descending Salt Lake Center
06:16PM 40.2817 -111.8303 305° West 275 316 13,400 -900 Descending Salt Lake Center
06:17PM 40.3153 -111.8553 330° Northwest 249 287 12,800 -1,140 Descending Salt Lake Center
06:17PM 40.3353 -111.8825 314° West 246 283 12,300 -1,260 Descending Salt Lake Center
06:18PM 40.3686 -111.9100 328° Northwest 243 280 11,500 -1,320 Descending Salt Lake Center
06:18PM 40.3886 -111.9347 317° Northwest 244 281 11,000 -540 Descending Salt Lake Center
06:19PM 40.4433 -111.9350 360° North 236 272 11,000 -300 Level Salt Lake Center
06:19PM 40.4544 -111.9406 339° North 235 270 10,700 -1,260 Descending Salt Lake Center
06:20PM 40.5061 -111.9419 359° North 227 261 9,700 -1,320 Descending Salt Lake Center
06:20PM 40.5181 -111.9472 341° North 203 234 9,400 -1,020 Descending Salt Lake Center
06:21PM 40.5547 -111.9478 359° North 175 201 8,700 -1,020 Descending Salt Lake Center
06:21PM 40.5667 -111.9533 341° North 172 198 8,400 -1,020 Descending Salt Lake Center
06:22PM 40.6050 -111.9533 360° North 180 207 7,700 -1,020 Descending Salt Lake Center
06:22PM 40.6172 -111.9589 341° North 179 206 7,400 -1,020 Descending Salt Lake Center
06:23PM 40.6528 -111.9592 360° North 175 201 6,700 -1,020 Descending Salt Lake Center
06:23PM 40.6681 -111.9642 346° North 168 193 6,300 -1,020 Descending Salt Lake Center
06:24PM 40.7094 -111.9669 357° North 167 192 5,500 -840 Descending Salt Lake Center
06:25PM 40.7411 -111.9692 357° North 158 182 4,900 -840 Descending Salt Lake Center
06:25PM 40.7494 -111.9733 339° North 153 176 4,700 -720 Descending Salt Lake Center
06:26PM 40.7886 -111.9742 359° North 143 165 4,200 -600 Descending Salt Lake Center